createdAt,value
2017-09-30T00:00:56.807Z,8.90
2017-09-30T00:01:56.809Z,9.20
2017-09-30T00:02:56.808Z,8.40
2017-09-30T00:03:56.821Z,8.20
2017-09-30T00:04:56.814Z,8.20
2017-09-30T00:05:56.807Z,8.90
2017-09-30T00:06:56.808Z,9.10
2017-09-30T00:07:56.809Z,8.70
2017-09-30T00:08:56.810Z,8.90
2017-09-30T00:09:56.810Z,8.20
2017-09-30T00:10:56.811Z,8.50
2017-09-30T00:11:56.812Z,8.40
2017-09-30T00:12:56.812Z,8.20
2017-09-30T00:13:56.816Z,8.10
2017-09-30T00:14:56.818Z,8.20
2017-09-30T00:15:56.821Z,8.20
2017-09-30T00:16:56.819Z,8.90
2017-09-30T00:17:56.820Z,8.00
2017-09-30T00:18:56.820Z,8.60
2017-09-30T00:19:56.822Z,8.40
2017-09-30T00:20:56.821Z,8.00
2017-09-30T00:21:56.817Z,8.20
2017-09-30T00:22:56.819Z,8.50
2017-09-30T00:23:56.820Z,7.80
2017-09-30T00:24:56.819Z,8.50
2017-09-30T00:25:56.822Z,8.60
2017-09-30T00:26:56.821Z,9.30
2017-09-30T00:27:56.822Z,8.70
2017-09-30T00:28:56.820Z,8.90
2017-09-30T00:29:56.826Z,8.50
2017-09-30T00:30:56.827Z,8.80
2017-09-30T00:31:56.828Z,7.90
2017-09-30T00:32:56.827Z,8.40
2017-09-30T00:33:56.829Z,8.10
2017-09-30T00:34:56.829Z,8.40
2017-09-30T00:35:56.829Z,8.90
2017-09-30T00:36:56.832Z,9.50
2017-09-30T00:37:56.829Z,9.70
2017-09-30T00:38:56.828Z,9.80
2017-09-30T00:39:56.827Z,9.50
2017-09-30T00:40:56.828Z,8.90
2017-09-30T00:41:56.829Z,9.50
2017-09-30T00:42:56.830Z,9.60
2017-09-30T00:43:56.831Z,9.00
2017-09-30T00:44:56.830Z,9.40
2017-09-30T00:45:56.835Z,10.30
2017-09-30T00:46:56.837Z,9.30
2017-09-30T00:47:56.837Z,9.60
2017-09-30T00:48:56.837Z,10.40
2017-09-30T00:49:56.836Z,10.30
2017-09-30T00:50:56.838Z,10.30
2017-09-30T00:51:56.839Z,10.00
2017-09-30T00:52:56.838Z,11.20
2017-09-30T00:53:56.836Z,11.00
2017-09-30T00:54:56.837Z,12.20
2017-09-30T00:55:56.838Z,12.50
2017-09-30T00:56:56.837Z,12.90
2017-09-30T00:57:56.838Z,14.30
2017-09-30T00:58:56.839Z,17.30
2017-09-30T00:59:56.841Z,17.80
2017-09-30T01:00:56.840Z,18.70
2017-09-30T01:01:56.847Z,19.20
2017-09-30T01:02:56.846Z,19.90
2017-09-30T01:03:56.845Z,21.10
2017-09-30T01:04:56.847Z,20.60
2017-09-30T01:05:56.848Z,19.50
2017-09-30T01:06:56.849Z,20.20
2017-09-30T01:07:56.848Z,21.10
2017-09-30T01:08:56.850Z,22.00
2017-09-30T01:09:56.846Z,21.40
2017-09-30T01:10:56.846Z,21.70
2017-09-30T01:11:56.846Z,22.10
2017-09-30T01:12:56.848Z,22.70
2017-09-30T01:13:56.847Z,23.90
2017-09-30T01:14:56.848Z,24.60
2017-09-30T01:15:56.848Z,24.10
2017-09-30T01:16:56.848Z,23.40
2017-09-30T01:17:56.853Z,22.70
2017-09-30T01:18:56.853Z,24.30
2017-09-30T01:19:56.855Z,22.90
2017-09-30T01:20:56.854Z,23.10
2017-09-30T01:21:56.859Z,23.80
2017-09-30T01:22:56.855Z,23.10
2017-09-30T01:23:56.856Z,23.00
2017-09-30T01:24:56.856Z,22.70
2017-09-30T01:25:56.852Z,22.90
2017-09-30T01:26:56.853Z,24.40
2017-09-30T01:27:56.852Z,23.40
2017-09-30T01:28:56.853Z,22.10
2017-09-30T01:29:56.853Z,21.50
2017-09-30T01:30:56.853Z,20.20
2017-09-30T01:31:56.856Z,20.10
2017-09-30T01:32:56.853Z,19.00
2017-09-30T01:33:56.859Z,18.80
2017-09-30T01:34:56.859Z,17.20
2017-09-30T01:35:56.861Z,16.60
2017-09-30T01:36:56.863Z,16.20
2017-09-30T01:37:56.861Z,16.00
2017-09-30T01:38:56.861Z,14.90
2017-09-30T01:39:56.862Z,13.00
2017-09-30T01:40:56.862Z,10.00
2017-09-30T01:41:56.857Z,10.10
2017-09-30T01:42:56.860Z,10.80
2017-09-30T01:43:56.859Z,10.90
2017-09-30T01:44:56.859Z,10.30
2017-09-30T01:45:56.864Z,8.70
2017-09-30T01:46:56.864Z,8.00
2017-09-30T01:47:56.866Z,6.80
2017-09-30T01:48:56.863Z,7.10
2017-09-30T01:49:56.861Z,8.50
2017-09-30T01:50:56.862Z,9.10
2017-09-30T01:51:56.861Z,9.40
2017-09-30T01:52:56.864Z,9.10
2017-09-30T01:53:56.861Z,9.10
2017-09-30T01:54:56.861Z,8.80
2017-09-30T01:55:56.862Z,9.30
2017-09-30T01:56:56.861Z,9.20
2017-09-30T01:57:56.866Z,10.00
2017-09-30T01:58:56.866Z,10.20
2017-09-30T01:59:56.866Z,10.40
2017-09-30T02:00:56.866Z,9.30
2017-09-30T02:01:56.866Z,9.60
2017-09-30T02:02:56.866Z,9.90
2017-09-30T02:03:56.867Z,10.80
2017-09-30T02:04:56.864Z,10.40
2017-09-30T02:05:56.862Z,10.80
2017-09-30T02:06:56.862Z,10.60
2017-09-30T02:07:56.862Z,10.10
2017-09-30T02:08:56.860Z,11.00
2017-09-30T02:09:56.861Z,12.50
2017-09-30T02:10:56.861Z,11.50
2017-09-30T02:11:56.860Z,11.80
2017-09-30T02:12:56.861Z,11.80
2017-09-30T02:13:56.864Z,11.80
2017-09-30T02:14:56.865Z,14.00
2017-09-30T02:15:56.866Z,13.00
2017-09-30T02:16:56.862Z,14.00
2017-09-30T02:17:56.863Z,13.70
2017-09-30T02:18:56.864Z,13.00
2017-09-30T02:19:56.862Z,14.30
2017-09-30T02:20:56.862Z,14.20
2017-09-30T02:21:56.858Z,12.90
2017-09-30T02:22:56.858Z,13.90
2017-09-30T02:23:56.856Z,15.10
2017-09-30T02:24:56.857Z,14.30
2017-09-30T02:25:56.856Z,16.00
2017-09-30T02:26:56.855Z,16.10
2017-09-30T02:27:56.855Z,17.10
2017-09-30T02:28:56.854Z,17.60
2017-09-30T02:29:56.857Z,15.70
2017-09-30T02:30:56.867Z,16.30
2017-09-30T02:31:56.856Z,17.60
2017-09-30T02:32:56.854Z,16.90
2017-09-30T02:33:56.853Z,15.40
2017-09-30T02:34:56.856Z,17.00
2017-09-30T02:35:56.853Z,17.80
2017-09-30T02:36:56.850Z,17.30
2017-09-30T02:37:56.845Z,17.70
2017-09-30T02:38:56.845Z,18.10
2017-09-30T02:39:56.846Z,18.10
2017-09-30T02:40:56.844Z,18.40
2017-09-30T02:41:56.842Z,18.40
2017-09-30T02:42:56.842Z,19.60
2017-09-30T02:43:56.842Z,19.40
2017-09-30T02:44:56.845Z,18.00
2017-09-30T02:45:56.843Z,19.20
2017-09-30T02:46:56.843Z,18.90
2017-09-30T02:47:56.841Z,19.80
2017-09-30T02:48:56.840Z,19.90
2017-09-30T02:49:56.842Z,19.50
2017-09-30T02:50:56.834Z,19.20
2017-09-30T02:51:56.834Z,19.00
2017-09-30T02:52:56.833Z,17.20
2017-09-30T02:53:56.838Z,16.10
2017-09-30T02:54:56.836Z,17.10
2017-09-30T02:55:56.834Z,18.20
2017-09-30T02:56:56.832Z,20.40
2017-09-30T02:57:56.831Z,18.60
2017-09-30T02:58:56.836Z,17.50
2017-09-30T02:59:56.831Z,17.50
2017-09-30T03:00:56.836Z,19.30
2017-09-30T03:01:56.824Z,19.70
2017-09-30T03:02:56.824Z,20.00
2017-09-30T03:03:56.822Z,19.70
2017-09-30T03:04:56.821Z,18.30
2017-09-30T03:05:56.821Z,21.00
2017-09-30T03:06:56.818Z,20.90
2017-09-30T03:07:56.818Z,20.90
2017-09-30T03:08:56.816Z,19.10
2017-09-30T03:09:56.820Z,19.80
2017-09-30T03:10:56.819Z,19.50
2017-09-30T03:11:56.818Z,21.10
2017-09-30T03:12:56.816Z,20.80
2017-09-30T03:13:56.819Z,21.60
2017-09-30T03:14:56.815Z,20.20
2017-09-30T03:15:56.815Z,21.40
2017-09-30T03:16:56.813Z,20.20
2017-09-30T03:17:56.812Z,21.30
2017-09-30T03:18:56.807Z,22.20
2017-09-30T03:19:56.806Z,22.20
2017-09-30T03:20:56.805Z,22.50
2017-09-30T03:21:56.804Z,23.50
2017-09-30T03:22:56.802Z,23.70
2017-09-30T03:23:56.802Z,22.70
2017-09-30T03:24:56.800Z,23.20
2017-09-30T03:25:56.806Z,24.20
2017-09-30T03:26:56.804Z,24.80
2017-09-30T03:27:56.800Z,25.00
2017-09-30T03:28:56.800Z,24.10
2017-09-30T03:29:56.799Z,24.30
2017-09-30T03:30:56.797Z,24.00
2017-09-30T03:31:56.796Z,23.60
2017-09-30T03:32:56.795Z,23.40
2017-09-30T03:33:56.793Z,23.60
2017-09-30T03:34:56.792Z,23.50
2017-09-30T03:35:56.800Z,23.90
2017-09-30T03:36:56.786Z,24.30
2017-09-30T03:37:56.785Z,23.80
2017-09-30T03:38:56.785Z,24.90
2017-09-30T03:39:56.783Z,23.70
2017-09-30T03:40:56.781Z,21.60
2017-09-30T03:41:56.784Z,21.10
2017-09-30T03:42:56.783Z,21.60
2017-09-30T03:43:56.783Z,21.60
2017-09-30T03:44:56.779Z,21.40
2017-09-30T03:45:56.779Z,21.00
2017-09-30T03:46:56.794Z,21.20
2017-09-30T03:47:56.777Z,21.80
2017-09-30T03:48:56.775Z,21.70
2017-09-30T03:49:56.771Z,22.10
2017-09-30T03:50:56.768Z,21.40
2017-09-30T03:51:56.768Z,21.20
2017-09-30T03:52:56.766Z,22.40
2017-09-30T03:53:56.769Z,21.10
2017-09-30T03:54:56.771Z,21.70
2017-09-30T03:55:56.766Z,22.00
2017-09-30T03:56:56.765Z,20.40
2017-09-30T03:57:56.760Z,20.70
2017-09-30T03:58:56.758Z,21.80
2017-09-30T03:59:56.757Z,20.20
2017-09-30T04:00:56.756Z,20.30
2017-09-30T04:01:56.755Z,22.20
2017-09-30T04:02:56.753Z,20.50
2017-09-30T04:03:56.752Z,21.40
2017-09-30T04:04:56.750Z,21.30
2017-09-30T04:05:56.753Z,20.10
2017-09-30T04:06:56.752Z,20.70
2017-09-30T04:07:56.752Z,20.60
2017-09-30T04:08:56.748Z,20.10
2017-09-30T04:09:56.749Z,19.60
2017-09-30T04:10:56.746Z,19.60
2017-09-30T04:11:56.746Z,21.20
2017-09-30T04:12:56.744Z,21.00
2017-09-30T04:13:56.739Z,22.20
2017-09-30T04:14:56.738Z,22.40
2017-09-30T04:15:56.737Z,21.20
2017-09-30T04:16:56.735Z,21.80
2017-09-30T04:17:56.733Z,23.50
2017-09-30T04:18:56.732Z,19.80
2017-09-30T04:19:56.733Z,20.50
2017-09-30T04:20:56.732Z,20.20
2017-09-30T04:21:56.732Z,19.70
2017-09-30T04:22:56.732Z,18.60
2017-09-30T04:23:56.730Z,20.30
2017-09-30T04:24:56.730Z,20.90
2017-09-30T04:25:56.730Z,20.20
2017-09-30T04:26:56.726Z,22.70
2017-09-30T04:27:56.727Z,20.00
2017-09-30T04:28:56.723Z,20.60
2017-09-30T04:29:56.720Z,21.20
2017-09-30T04:30:56.719Z,22.50
2017-09-30T04:31:56.718Z,23.40
2017-09-30T04:32:56.717Z,25.20
2017-09-30T04:33:56.714Z,24.10
2017-09-30T04:34:56.715Z,24.90
2017-09-30T04:35:56.714Z,24.90
2017-09-30T04:36:56.712Z,28.60
2017-09-30T04:37:56.714Z,27.90
2017-09-30T04:38:56.715Z,29.20
2017-09-30T04:39:56.713Z,29.40
2017-09-30T04:40:56.711Z,28.30
2017-09-30T04:41:56.712Z,29.10
2017-09-30T04:42:56.714Z,30.10
2017-09-30T04:43:56.708Z,28.40
2017-09-30T04:44:56.708Z,27.30
2017-09-30T04:45:56.703Z,28.80
2017-09-30T04:46:56.702Z,27.10
2017-09-30T04:47:56.702Z,27.20
2017-09-30T04:48:56.698Z,25.10
2017-09-30T04:49:56.699Z,24.00
2017-09-30T04:50:56.697Z,23.70
2017-09-30T04:51:56.696Z,23.90
2017-09-30T04:52:56.695Z,26.30
2017-09-30T04:53:56.699Z,25.60
2017-09-30T04:54:56.697Z,25.20
2017-09-30T04:55:56.697Z,25.00
2017-09-30T04:56:56.694Z,24.10
2017-09-30T04:57:56.690Z,25.70
2017-09-30T04:58:56.691Z,25.30
2017-09-30T04:59:56.688Z,25.00
2017-09-30T05:00:56.686Z,26.80
2017-09-30T05:01:56.691Z,25.30
2017-09-30T05:02:56.688Z,24.00
2017-09-30T05:03:56.688Z,25.10
2017-09-30T05:04:56.687Z,24.90
2017-09-30T05:05:56.685Z,24.90
2017-09-30T05:06:56.684Z,25.30
2017-09-30T05:07:56.684Z,23.70
2017-09-30T05:08:56.683Z,23.90
2017-09-30T05:09:56.677Z,23.40
2017-09-30T05:10:56.676Z,22.00
2017-09-30T05:11:56.677Z,22.70
2017-09-30T05:12:56.673Z,21.30
2017-09-30T05:13:56.674Z,22.40
2017-09-30T05:14:56.672Z,22.30
2017-09-30T05:15:56.671Z,23.50
2017-09-30T05:16:56.668Z,23.60
2017-09-30T05:17:56.672Z,22.50
2017-09-30T05:18:56.672Z,22.60
2017-09-30T05:19:56.671Z,23.50
2017-09-30T05:20:56.669Z,23.30
2017-09-30T05:21:56.667Z,23.00
2017-09-30T05:22:56.666Z,22.10
2017-09-30T05:23:56.667Z,22.40
2017-09-30T05:24:56.664Z,21.10
2017-09-30T05:25:56.658Z,22.50
2017-09-30T05:26:56.658Z,22.50
2017-09-30T05:27:56.657Z,25.20
2017-09-30T05:28:56.655Z,23.00
2017-09-30T05:29:56.653Z,23.70
2017-09-30T05:30:56.651Z,24.10
2017-09-30T05:31:56.653Z,22.80
2017-09-30T05:32:56.649Z,23.40
2017-09-30T05:33:56.652Z,23.00
2017-09-30T05:34:56.651Z,22.00
2017-09-30T05:35:56.650Z,19.90
2017-09-30T05:36:56.648Z,21.20
2017-09-30T05:37:56.648Z,20.40
2017-09-30T05:38:56.647Z,20.30
2017-09-30T05:39:56.647Z,21.50
2017-09-30T05:40:56.644Z,20.10
2017-09-30T05:41:56.639Z,21.30
2017-09-30T05:42:56.638Z,19.60
2017-09-30T05:43:56.638Z,20.50
2017-09-30T05:44:56.635Z,20.00
2017-09-30T05:45:56.633Z,21.30
2017-09-30T05:46:56.633Z,20.10
2017-09-30T05:47:56.632Z,19.30
2017-09-30T05:48:56.629Z,20.60
2017-09-30T05:49:56.633Z,22.20
2017-09-30T05:50:56.632Z,21.00
2017-09-30T05:51:56.632Z,22.60
2017-09-30T05:52:56.630Z,22.30
2017-09-30T05:53:56.629Z,22.60
2017-09-30T05:54:56.630Z,21.90
2017-09-30T05:55:56.626Z,21.00
2017-09-30T05:56:56.626Z,20.90
2017-09-30T05:57:56.621Z,21.10
2017-09-30T05:58:56.619Z,21.50
2017-09-30T05:59:56.618Z,21.50
2017-09-30T06:00:56.617Z,20.60
2017-09-30T06:01:56.620Z,20.30
2017-09-30T06:02:56.619Z,19.10
2017-09-30T06:03:56.619Z,18.50
2017-09-30T06:04:56.616Z,18.00
2017-09-30T06:05:56.611Z,19.00
2017-09-30T06:06:56.611Z,17.90
2017-09-30T06:07:56.610Z,19.40
2017-09-30T06:08:56.608Z,18.40
2017-09-30T06:09:56.606Z,17.60
2017-09-30T06:10:56.611Z,18.40
2017-09-30T06:11:56.605Z,18.60
2017-09-30T06:12:56.604Z,18.30
2017-09-30T06:13:56.608Z,17.50
2017-09-30T06:14:56.606Z,17.50
2017-09-30T06:15:56.607Z,17.10
2017-09-30T06:16:56.605Z,17.90
2017-09-30T06:17:56.621Z,16.80
2017-09-30T06:18:56.604Z,18.00
2017-09-30T06:19:56.604Z,18.50
2017-09-30T06:20:56.617Z,18.40
2017-09-30T06:21:56.597Z,18.40
2017-09-30T06:22:56.596Z,17.70
2017-09-30T06:23:56.594Z,17.20
2017-09-30T06:24:56.595Z,16.90
2017-09-30T06:25:56.594Z,18.60
2017-09-30T06:26:56.594Z,17.90
2017-09-30T06:27:56.593Z,17.00
2017-09-30T06:28:56.591Z,15.70
2017-09-30T06:29:56.594Z,17.10
2017-09-30T06:30:56.593Z,15.60
2017-09-30T06:31:56.594Z,16.60
2017-09-30T06:32:56.593Z,15.60
2017-09-30T06:33:56.592Z,15.20
2017-09-30T06:34:56.592Z,13.50
2017-09-30T06:35:56.591Z,15.00
2017-09-30T06:36:56.589Z,13.50
2017-09-30T06:37:56.585Z,13.30
2017-09-30T06:38:56.584Z,13.90
2017-09-30T06:39:56.584Z,14.40
2017-09-30T06:40:56.582Z,15.00
2017-09-30T06:41:56.583Z,14.50
2017-09-30T06:42:56.582Z,13.80
2017-09-30T06:43:56.581Z,13.20
2017-09-30T06:44:56.579Z,14.50
2017-09-30T06:45:56.584Z,14.90
2017-09-30T06:46:56.584Z,14.70
2017-09-30T06:47:56.583Z,14.50
2017-09-30T06:48:56.581Z,14.40
2017-09-30T06:49:56.602Z,14.90
2017-09-30T06:50:56.579Z,15.60
2017-09-30T06:51:56.579Z,15.60
2017-09-30T06:52:56.580Z,15.50
2017-09-30T06:53:56.572Z,16.70
2017-09-30T06:54:56.573Z,16.50
2017-09-30T06:55:56.572Z,17.30
2017-09-30T06:56:56.570Z,17.80
2017-09-30T06:57:56.569Z,17.00
2017-09-30T06:58:56.570Z,16.60
2017-09-30T06:59:56.569Z,16.20
2017-09-30T07:00:56.569Z,15.90
2017-09-30T07:01:56.571Z,16.40
2017-09-30T07:02:56.572Z,16.80
2017-09-30T07:03:56.571Z,15.00
2017-09-30T07:04:56.569Z,15.10
2017-09-30T07:05:56.565Z,14.70
2017-09-30T07:06:56.564Z,14.80
2017-09-30T07:07:56.564Z,14.50
2017-09-30T07:08:56.562Z,15.70
2017-09-30T07:09:56.566Z,15.30
2017-09-30T07:10:56.565Z,14.20
2017-09-30T07:11:56.564Z,15.50
2017-09-30T07:12:56.563Z,14.20
2017-09-30T07:13:56.564Z,14.10
2017-09-30T07:14:56.563Z,14.00
2017-09-30T07:15:56.564Z,14.10
2017-09-30T07:16:56.560Z,13.50
2017-09-30T07:17:56.558Z,13.00
2017-09-30T07:18:56.556Z,13.40
2017-09-30T07:19:56.556Z,13.10
2017-09-30T07:20:56.555Z,11.30
2017-09-30T07:21:56.555Z,11.40
2017-09-30T07:22:56.554Z,10.70
2017-09-30T07:23:56.555Z,9.90
2017-09-30T07:24:56.556Z,10.80
2017-09-30T07:25:56.558Z,10.10
2017-09-30T07:26:56.557Z,10.60
2017-09-30T07:27:56.557Z,10.50
2017-09-30T07:28:56.556Z,9.70
2017-09-30T07:29:56.611Z,10.10
2017-09-30T07:30:56.555Z,9.30
2017-09-30T07:31:56.563Z,8.80
2017-09-30T07:32:56.554Z,9.80
2017-09-30T07:33:56.550Z,9.10
2017-09-30T07:34:56.550Z,9.40
2017-09-30T07:35:56.550Z,8.90
2017-09-30T07:36:56.547Z,9.20
2017-09-30T07:37:56.548Z,9.30
2017-09-30T07:38:56.550Z,9.50
2017-09-30T07:39:56.548Z,9.10
2017-09-30T07:40:56.546Z,9.40
2017-09-30T07:41:56.551Z,9.40
2017-09-30T07:42:56.552Z,9.30
2017-09-30T07:43:56.552Z,9.50
2017-09-30T07:44:56.551Z,9.10
2017-09-30T07:45:56.549Z,9.60
2017-09-30T07:46:56.549Z,9.10
2017-09-30T07:47:56.547Z,8.90
2017-09-30T07:48:56.546Z,9.20
2017-09-30T07:49:56.543Z,8.80
2017-09-30T07:50:56.543Z,8.50
2017-09-30T07:51:56.542Z,9.20
2017-09-30T07:52:56.540Z,9.30
2017-09-30T07:53:56.539Z,9.30
2017-09-30T07:54:56.540Z,8.70
2017-09-30T07:55:56.541Z,8.80
2017-09-30T07:56:56.539Z,9.00
2017-09-30T07:57:56.542Z,9.60
2017-09-30T07:58:56.542Z,9.60
2017-09-30T07:59:56.542Z,9.60
2017-09-30T08:00:56.542Z,9.80
2017-09-30T08:01:56.540Z,9.70
2017-09-30T08:02:56.540Z,9.80
2017-09-30T08:03:56.540Z,10.00
2017-09-30T08:04:56.537Z,10.90
2017-09-30T08:05:56.533Z,9.40
2017-09-30T08:06:56.532Z,8.90
2017-09-30T08:07:56.534Z,10.20
2017-09-30T08:08:56.532Z,8.70
2017-09-30T08:09:56.537Z,8.50
2017-09-30T08:10:56.535Z,8.60
2017-09-30T08:11:56.547Z,9.00
2017-09-30T08:12:56.535Z,8.80
2017-09-30T08:13:56.530Z,9.50
2017-09-30T08:14:56.530Z,9.20
2017-09-30T08:15:56.536Z,7.90
2017-09-30T08:16:56.528Z,8.40
2017-09-30T08:17:56.528Z,8.30
2017-09-30T08:18:56.527Z,8.20
2017-09-30T08:19:56.527Z,6.90
2017-09-30T08:20:56.527Z,7.30
2017-09-30T08:21:56.530Z,7.70
2017-09-30T08:22:56.530Z,8.30
2017-09-30T08:23:56.530Z,8.20
2017-09-30T08:24:56.529Z,7.70
2017-09-30T08:25:56.527Z,8.90
2017-09-30T08:26:56.529Z,9.00
2017-09-30T08:27:56.541Z,8.40
2017-09-30T08:28:56.527Z,8.80
2017-09-30T08:29:56.524Z,9.10
2017-09-30T08:30:56.523Z,8.70
2017-09-30T08:31:56.523Z,8.30
2017-09-30T08:32:56.523Z,8.40
2017-09-30T08:33:56.522Z,8.70
2017-09-30T08:34:56.523Z,9.40
2017-09-30T08:35:56.521Z,9.10
2017-09-30T08:36:56.521Z,9.10
2017-09-30T08:37:56.526Z,8.60
2017-09-30T08:38:56.524Z,7.90
2017-09-30T08:39:56.523Z,8.10
2017-09-30T08:40:56.524Z,8.00
2017-09-30T08:41:56.523Z,7.60
2017-09-30T08:42:56.540Z,8.10
2017-09-30T08:43:56.531Z,7.70
2017-09-30T08:44:56.522Z,7.70
2017-09-30T08:45:56.520Z,7.90
2017-09-30T08:46:56.520Z,8.80
2017-09-30T08:47:56.517Z,9.10
2017-09-30T08:48:56.516Z,8.80
2017-09-30T08:49:56.515Z,7.80
2017-09-30T08:50:56.515Z,7.60
2017-09-30T08:51:56.528Z,8.50
2017-09-30T08:52:56.514Z,8.40
2017-09-30T08:53:56.520Z,8.30
2017-09-30T08:54:56.518Z,8.50
2017-09-30T08:55:56.517Z,8.40
2017-09-30T08:56:56.516Z,8.50
2017-09-30T08:57:56.516Z,8.80
2017-09-30T08:58:56.520Z,10.10
2017-09-30T08:59:56.517Z,8.90
2017-09-30T09:00:56.517Z,9.00
2017-09-30T09:01:56.511Z,9.50
2017-09-30T09:02:56.511Z,9.00
2017-09-30T09:03:56.510Z,9.30
2017-09-30T09:04:56.518Z,9.70
2017-09-30T09:05:56.510Z,9.20
2017-09-30T09:06:56.510Z,10.10
2017-09-30T09:07:56.509Z,10.00
2017-09-30T09:08:56.507Z,9.90
2017-09-30T09:09:56.511Z,10.20
2017-09-30T09:10:56.512Z,10.00
2017-09-30T09:11:56.511Z,10.20
2017-09-30T09:12:56.510Z,10.40
2017-09-30T09:13:56.511Z,10.20
2017-09-30T09:14:56.510Z,9.90
2017-09-30T09:15:56.510Z,10.20
2017-09-30T09:16:56.509Z,9.60
2017-09-30T09:17:56.505Z,9.90
2017-09-30T09:18:56.506Z,9.60
2017-09-30T09:19:56.504Z,10.20
2017-09-30T09:20:56.502Z,10.40
2017-09-30T09:21:56.501Z,10.90
2017-09-30T09:22:56.502Z,10.50
2017-09-30T09:23:56.501Z,9.50
2017-09-30T09:24:56.500Z,8.70
2017-09-30T09:25:56.504Z,9.80
2017-09-30T09:26:56.504Z,8.60
2017-09-30T09:27:56.504Z,9.40
2017-09-30T09:28:56.502Z,9.40
2017-09-30T09:29:56.502Z,9.60
2017-09-30T09:30:56.502Z,8.60
2017-09-30T09:31:56.500Z,9.70
2017-09-30T09:32:56.499Z,8.70
2017-09-30T09:33:56.495Z,9.60
2017-09-30T09:34:56.495Z,9.70
2017-09-30T09:35:56.494Z,9.60
2017-09-30T09:36:56.492Z,10.20
2017-09-30T09:37:56.494Z,10.50
2017-09-30T09:38:56.492Z,11.40
2017-09-30T09:39:56.495Z,11.90
2017-09-30T09:40:56.490Z,12.80
2017-09-30T09:41:56.494Z,14.10
2017-09-30T09:42:56.493Z,14.30
2017-09-30T09:43:56.493Z,14.80
2017-09-30T09:44:56.490Z,16.40
2017-09-30T09:45:56.491Z,16.80
2017-09-30T09:46:56.497Z,17.50
2017-09-30T09:47:56.491Z,18.00
2017-09-30T09:48:56.490Z,18.00
2017-09-30T09:49:56.483Z,18.70
2017-09-30T09:50:56.483Z,20.80
2017-09-30T09:51:56.483Z,19.50
2017-09-30T09:52:56.481Z,18.60
2017-09-30T09:53:56.481Z,21.00
2017-09-30T09:54:56.481Z,21.20
2017-09-30T09:55:56.479Z,20.90
2017-09-30T09:56:56.502Z,20.50
2017-09-30T09:57:56.482Z,19.90
2017-09-30T09:58:56.480Z,19.40
2017-09-30T09:59:56.481Z,20.20
2017-09-30T10:00:56.478Z,21.40
2017-09-30T10:01:56.478Z,20.40
2017-09-30T10:02:56.477Z,19.50
2017-09-30T10:03:56.479Z,21.30
2017-09-30T10:04:56.475Z,22.70
2017-09-30T10:05:56.470Z,21.20
2017-09-30T10:06:56.470Z,22.20
2017-09-30T10:07:56.468Z,22.10
2017-09-30T10:08:56.467Z,21.10
2017-09-30T10:09:56.467Z,23.40
2017-09-30T10:10:56.467Z,23.40
2017-09-30T10:11:56.469Z,23.40
2017-09-30T10:12:56.464Z,22.50
2017-09-30T10:13:56.468Z,19.80
2017-09-30T10:14:56.467Z,12.90
2017-09-30T10:15:56.465Z,9.40
2017-09-30T10:16:56.464Z,8.20
2017-09-30T10:17:56.459Z,8.60
2017-09-30T10:18:56.458Z,9.40
2017-09-30T10:19:56.457Z,9.10
2017-09-30T10:20:56.455Z,9.60
2017-09-30T10:21:56.457Z,9.10
2017-09-30T10:22:56.459Z,10.40
2017-09-30T10:23:56.458Z,10.90
2017-09-30T10:24:56.456Z,11.90
2017-09-30T10:25:56.455Z,11.50
2017-09-30T10:26:56.453Z,12.40
2017-09-30T10:27:56.452Z,11.50
2017-09-30T10:28:56.451Z,12.20
2017-09-30T10:29:56.447Z,13.80
2017-09-30T10:30:56.445Z,13.20
2017-09-30T10:31:56.445Z,14.10
2017-09-30T10:32:56.445Z,14.10
2017-09-30T10:33:56.444Z,14.50
2017-09-30T10:34:56.443Z,15.70
2017-09-30T10:35:56.450Z,14.90
2017-09-30T10:36:56.439Z,16.80
2017-09-30T10:37:56.443Z,15.00
2017-09-30T10:38:56.443Z,17.20
2017-09-30T10:39:56.441Z,15.70
2017-09-30T10:40:56.440Z,15.30
2017-09-30T10:41:56.439Z,13.90
2017-09-30T10:42:56.437Z,10.80
2017-09-30T10:43:56.437Z,10.40
2017-09-30T10:44:56.437Z,10.30
2017-09-30T10:45:56.430Z,10.70
2017-09-30T10:46:56.431Z,10.10
2017-09-30T10:47:56.430Z,10.20
2017-09-30T10:48:56.429Z,9.80
2017-09-30T10:49:56.427Z,8.30
2017-09-30T10:50:56.426Z,7.10
2017-09-30T10:51:56.425Z,7.30
2017-09-30T10:52:56.424Z,7.20
2017-09-30T10:53:56.427Z,6.30
2017-09-30T10:54:56.426Z,5.80
2017-09-30T10:55:56.425Z,5.80
2017-09-30T10:56:56.424Z,5.50
2017-09-30T10:57:56.423Z,5.60
2017-09-30T10:58:56.444Z,5.80
2017-09-30T10:59:56.421Z,5.00
2017-09-30T11:00:56.419Z,5.50
2017-09-30T11:01:56.414Z,5.60
2017-09-30T11:02:56.413Z,5.70
2017-09-30T11:03:56.414Z,5.70
2017-09-30T11:04:56.411Z,5.70
2017-09-30T11:05:56.409Z,6.60
2017-09-30T11:06:56.409Z,6.00
2017-09-30T11:07:56.409Z,5.30
2017-09-30T11:08:56.412Z,5.80
2017-09-30T11:09:56.410Z,5.80
2017-09-30T11:10:56.408Z,6.50
2017-09-30T11:11:56.407Z,6.70
2017-09-30T11:12:56.406Z,7.80
2017-09-30T11:13:56.407Z,6.80
2017-09-30T11:14:56.405Z,6.50
2017-09-30T11:15:56.406Z,7.10
2017-09-30T11:16:56.403Z,6.50
2017-09-30T11:17:56.397Z,6.70
2017-09-30T11:18:56.398Z,7.60
2017-09-30T11:19:56.396Z,8.00
2017-09-30T11:20:56.395Z,7.30
2017-09-30T11:21:56.397Z,7.40
2017-09-30T11:22:56.398Z,8.20
2017-09-30T11:23:56.398Z,8.10
2017-09-30T11:24:56.399Z,7.90
2017-09-30T11:25:56.391Z,7.80
2017-09-30T11:26:56.388Z,8.20
2017-09-30T11:27:56.389Z,8.10
2017-09-30T11:28:56.387Z,8.00
2017-09-30T11:29:56.386Z,8.30
2017-09-30T11:30:56.388Z,8.00
2017-09-30T11:31:56.387Z,8.70
2017-09-30T11:32:56.385Z,8.70
2017-09-30T11:33:56.389Z,7.80
2017-09-30T11:34:56.389Z,8.90
2017-09-30T11:35:56.389Z,8.80
2017-09-30T11:36:56.387Z,8.60
2017-09-30T11:37:56.388Z,8.60
2017-09-30T11:38:56.386Z,9.20
2017-09-30T11:39:56.385Z,8.60
2017-09-30T11:40:56.385Z,8.80
2017-09-30T11:41:56.381Z,9.30
2017-09-30T11:42:56.382Z,8.70
2017-09-30T11:43:56.380Z,9.00
2017-09-30T11:44:56.381Z,8.60
2017-09-30T11:45:56.380Z,9.20
2017-09-30T11:46:56.381Z,9.50
2017-09-30T11:47:56.381Z,9.60
2017-09-30T11:48:56.380Z,9.10
2017-09-30T11:49:56.383Z,10.70
2017-09-30T11:50:56.384Z,10.20
2017-09-30T11:51:56.384Z,10.00
2017-09-30T11:52:56.383Z,10.00
2017-09-30T11:53:56.383Z,10.60
2017-09-30T11:54:56.382Z,10.80
2017-09-30T11:55:56.383Z,10.70
2017-09-30T11:56:56.381Z,11.30
2017-09-30T11:57:56.376Z,11.60
2017-09-30T11:58:56.376Z,11.70
2017-09-30T11:59:56.377Z,12.40
2017-09-30T12:00:56.375Z,12.50
2017-09-30T12:01:56.376Z,12.50
2017-09-30T12:02:56.375Z,12.90
2017-09-30T12:03:56.373Z,12.90
2017-09-30T12:04:56.373Z,12.90
2017-09-30T12:05:56.377Z,13.50
2017-09-30T12:06:56.378Z,13.10
2017-09-30T12:07:56.377Z,12.90
2017-09-30T12:08:56.376Z,13.30
2017-09-30T12:09:56.374Z,13.60
2017-09-30T12:10:56.376Z,13.90
2017-09-30T12:11:56.377Z,12.70
2017-09-30T12:12:56.374Z,13.50
2017-09-30T12:13:56.369Z,14.70
2017-09-30T12:14:56.369Z,13.80
2017-09-30T12:15:56.371Z,14.70
2017-09-30T12:16:56.367Z,13.90
2017-09-30T12:17:56.368Z,14.90
2017-09-30T12:18:56.368Z,14.30
2017-09-30T12:19:56.369Z,14.70
2017-09-30T12:20:56.366Z,14.70
2017-09-30T12:21:56.372Z,15.00
2017-09-30T12:22:56.370Z,15.80
2017-09-30T12:23:56.372Z,16.00
2017-09-30T12:24:56.370Z,14.50
2017-09-30T12:25:56.366Z,15.00
2017-09-30T12:26:56.376Z,13.40
2017-09-30T12:27:56.365Z,15.50
2017-09-30T12:28:56.363Z,14.80
2017-09-30T12:29:56.368Z,14.40
2017-09-30T12:30:56.367Z,14.40
2017-09-30T12:31:56.367Z,14.20
2017-09-30T12:32:56.370Z,13.40
2017-09-30T12:33:56.371Z,14.10
2017-09-30T12:34:56.366Z,14.30
2017-09-30T12:35:56.370Z,14.50
2017-09-30T12:36:56.364Z,15.40
2017-09-30T12:37:56.361Z,15.20
2017-09-30T12:38:56.361Z,15.00
2017-09-30T12:39:56.362Z,16.50
2017-09-30T12:40:56.360Z,16.40
2017-09-30T12:41:56.359Z,15.60
2017-09-30T12:42:56.359Z,16.50
2017-09-30T12:43:56.359Z,16.50
2017-09-30T12:44:56.358Z,17.70
2017-09-30T12:45:56.361Z,16.90
2017-09-30T12:46:56.361Z,16.70
2017-09-30T12:47:56.361Z,16.10
2017-09-30T12:48:56.360Z,16.10
2017-09-30T12:49:56.360Z,15.50
2017-09-30T12:50:56.359Z,15.30
2017-09-30T12:51:56.360Z,15.70
2017-09-30T12:52:56.357Z,14.30
2017-09-30T12:53:56.353Z,13.60
2017-09-30T12:54:56.353Z,13.40
2017-09-30T12:55:56.354Z,13.40
2017-09-30T12:56:56.353Z,12.70
2017-09-30T12:57:56.353Z,12.90
2017-09-30T12:58:56.352Z,11.30
2017-09-30T12:59:56.351Z,11.10
2017-09-30T13:00:56.349Z,10.90